createdAt,value
2018-03-29T00:00:31.953Z,7.72
2018-03-29T00:01:39.266Z,7.71
2018-03-29T00:02:51.837Z,7.69
2018-03-29T00:03:59.889Z,7.76
2018-03-29T00:05:07.285Z,7.83
2018-03-29T00:06:14.902Z,7.76
2018-03-29T00:07:22.506Z,7.65
2018-03-29T00:08:32.482Z,7.66
2018-03-29T00:09:40.397Z,7.63
2018-03-29T00:10:49.675Z,7.53
2018-03-29T00:12:01.717Z,7.56
2018-03-29T00:13:08.836Z,7.59
2018-03-29T00:14:16.078Z,7.58
2018-03-29T00:15:23.465Z,7.62
2018-03-29T00:16:31.216Z,7.66
2018-03-29T00:17:39.327Z,7.65
2018-03-29T00:18:46.529Z,7.64
2018-03-29T00:19:53.616Z,7.68
2018-03-29T00:21:00.818Z,7.67
2018-03-29T00:22:08.517Z,7.74
2018-03-29T00:23:15.944Z,7.76
2018-03-29T00:24:22.438Z,7.76
2018-03-29T00:25:28.877Z,7.74
2018-03-29T00:26:40.068Z,7.75
2018-03-29T00:27:46.226Z,7.81
2018-03-29T00:28:52.622Z,7.78
2018-03-29T00:30:04.832Z,7.82
2018-03-29T00:31:11.344Z,7.83
2018-03-29T00:32:17.537Z,7.87
2018-03-29T00:33:24.441Z,7.94
2018-03-29T00:34:31.032Z,7.96
2018-03-29T00:35:37.721Z,8.03
2018-03-29T00:36:43.921Z,8.09
2018-03-29T00:37:55.533Z,8.15
2018-03-29T00:39:01.960Z,8.16
2018-03-29T00:40:07.981Z,8.13
2018-03-29T00:41:14.358Z,8.12
2018-03-29T00:42:20.778Z,8.11
2018-03-29T00:43:32.932Z,8.07
2018-03-29T00:44:39.192Z,8.09
2018-03-29T00:45:45.390Z,8.09
2018-03-29T00:46:51.894Z,8.10
2018-03-29T00:47:58.389Z,8.08
2018-03-29T00:49:04.548Z,8.01
2018-03-29T00:50:10.952Z,8.01
2018-03-29T00:51:20.521Z,7.99
2018-03-29T00:52:26.757Z,7.89
2018-03-29T00:53:44.552Z,7.82
2018-03-29T00:54:51.165Z,7.76
2018-03-29T00:55:57.333Z,7.75
2018-03-29T00:57:03.654Z,7.71
2018-03-29T00:58:09.932Z,7.71
2018-03-29T00:59:16.350Z,7.69
2018-03-29T01:00:22.522Z,7.66
2018-03-29T01:01:27.743Z,7.63
2018-03-29T01:02:33.923Z,7.57
2018-03-29T01:03:40.436Z,7.55
2018-03-29T01:04:46.621Z,7.47
2018-03-29T01:05:53.350Z,7.49
2018-03-29T01:06:59.840Z,7.45
2018-03-29T01:08:06.049Z,7.37
2018-03-29T01:09:12.372Z,7.33
2018-03-29T01:10:21.154Z,7.27
2018-03-29T01:11:29.458Z,7.24
2018-03-29T01:12:36.985Z,7.21
2018-03-29T01:13:43.678Z,7.11
2018-03-29T01:14:50.015Z,7.07
2018-03-29T01:15:56.599Z,7.07
2018-03-29T01:17:03.265Z,7.06
2018-03-29T01:18:09.515Z,7.05
2018-03-29T01:19:23.905Z,6.97
2018-03-29T01:20:39.493Z,6.98
2018-03-29T01:21:45.781Z,6.98
2018-03-29T01:22:53.378Z,6.97
2018-03-29T01:24:00.021Z,6.94
2018-03-29T01:25:06.282Z,6.82
2018-03-29T01:26:12.873Z,6.79
2018-03-29T01:27:18.902Z,6.85
2018-03-29T01:28:28.271Z,6.82
2018-03-29T01:29:34.468Z,6.90
2018-03-29T01:30:40.856Z,6.88
2018-03-29T01:31:47.633Z,6.87
2018-03-29T01:32:54.752Z,6.90
2018-03-29T01:34:01.015Z,6.88
2018-03-29T01:35:07.578Z,6.79
2018-03-29T01:36:13.997Z,6.76
2018-03-29T01:37:20.438Z,6.74
2018-03-29T01:38:26.715Z,6.68
2018-03-29T01:39:32.938Z,6.72
2018-03-29T01:40:39.460Z,6.73
2018-03-29T01:41:46.654Z,6.75
2018-03-29T01:42:52.895Z,6.76
2018-03-29T01:43:59.116Z,6.79
2018-03-29T01:45:06.502Z,6.81
2018-03-29T01:46:13.042Z,6.77
2018-03-29T01:47:19.428Z,6.76
2018-03-29T01:48:26.602Z,6.77
2018-03-29T01:49:33.684Z,6.70
2018-03-29T01:50:40.218Z,6.67
2018-03-29T01:51:46.707Z,6.71
2018-03-29T01:52:53.149Z,6.72
2018-03-29T01:54:06.012Z,6.75
2018-03-29T01:55:13.198Z,6.70
2018-03-29T01:56:19.914Z,6.77
2018-03-29T01:57:26.137Z,6.80
2018-03-29T01:58:32.739Z,6.76
2018-03-29T01:59:39.249Z,6.75
2018-03-29T02:00:45.613Z,6.81
2018-03-29T02:01:55.713Z,6.90
2018-03-29T02:03:02.315Z,6.99
2018-03-29T02:04:08.809Z,7.00
2018-03-29T02:05:15.324Z,7.03
2018-03-29T02:06:27.421Z,7.06
2018-03-29T02:07:33.667Z,7.07
2018-03-29T02:08:40.087Z,7.05
2018-03-29T02:09:46.388Z,7.08
2018-03-29T02:10:52.728Z,7.06
2018-03-29T02:11:58.967Z,7.02
2018-03-29T02:13:05.618Z,7.02
2018-03-29T02:14:11.856Z,7.03
2018-03-29T02:15:20.227Z,6.98
2018-03-29T02:16:27.784Z,6.97
2018-03-29T02:17:34.007Z,7.01
2018-03-29T02:18:40.253Z,7.01
2018-03-29T02:19:46.438Z,7.01
2018-03-29T02:20:57.850Z,7.03
2018-03-29T02:22:09.368Z,6.98
2018-03-29T02:23:16.540Z,7.02
2018-03-29T02:24:22.691Z,6.99
2018-03-29T02:25:36.436Z,6.98
2018-03-29T02:26:42.632Z,6.97
2018-03-29T02:27:48.902Z,6.97
2018-03-29T02:28:55.535Z,6.97
2018-03-29T02:30:01.759Z,6.93
2018-03-29T02:31:08.228Z,6.92
2018-03-29T02:32:14.242Z,6.88
2018-03-29T02:33:21.447Z,6.86
2018-03-29T02:34:27.407Z,6.87
2018-03-29T02:35:34.029Z,6.87
2018-03-29T02:36:49.907Z,6.83
2018-03-29T02:37:56.106Z,6.79
2018-03-29T02:39:02.297Z,6.77
2018-03-29T02:40:08.259Z,6.82
2018-03-29T02:41:14.241Z,6.81
2018-03-29T02:42:20.481Z,6.86
2018-03-29T02:43:26.714Z,6.83
2018-03-29T02:44:32.903Z,6.74
2018-03-29T02:45:39.149Z,6.75
2018-03-29T02:46:45.481Z,6.71
2018-03-29T02:47:51.937Z,6.64
2018-03-29T02:48:58.164Z,6.65
2018-03-29T02:50:03.998Z,6.69
2018-03-29T02:51:10.169Z,6.68
2018-03-29T02:52:16.557Z,6.67
2018-03-29T02:53:22.731Z,6.60
2018-03-29T02:54:29.440Z,6.62
2018-03-29T02:55:35.729Z,6.70
2018-03-29T02:56:44.801Z,6.66
2018-03-29T02:58:00.320Z,6.62
2018-03-29T02:59:06.776Z,6.51
2018-03-29T03:00:13.025Z,6.53
2018-03-29T03:01:19.250Z,6.52
2018-03-29T03:02:26.292Z,6.54
2018-03-29T03:03:32.485Z,6.55
2018-03-29T03:04:41.701Z,6.56
2018-03-29T03:05:47.932Z,6.44
2018-03-29T03:06:55.487Z,6.47
2018-03-29T03:08:01.735Z,6.52
2018-03-29T03:09:07.995Z,6.55
2018-03-29T03:10:14.334Z,6.54
2018-03-29T03:11:20.547Z,6.52
2018-03-29T03:12:26.810Z,6.54
2018-03-29T03:13:35.678Z,6.47
2018-03-29T03:14:41.884Z,6.43
2018-03-29T03:15:48.150Z,6.40
2018-03-29T03:16:54.500Z,6.41
2018-03-29T03:18:00.738Z,6.47
2018-03-29T03:19:06.938Z,6.54
2018-03-29T03:20:13.152Z,6.47
2018-03-29T03:21:19.379Z,6.51
2018-03-29T03:22:25.768Z,6.53
2018-03-29T03:23:32.816Z,6.51
2018-03-29T03:24:39.021Z,6.54
2018-03-29T03:25:50.453Z,6.51
2018-03-29T03:26:57.809Z,6.55
2018-03-29T03:28:04.065Z,6.54
2018-03-29T03:29:10.296Z,6.52
2018-03-29T03:30:16.535Z,6.55
2018-03-29T03:31:22.756Z,6.47
2018-03-29T03:32:28.976Z,6.43
2018-03-29T03:33:40.182Z,6.46
2018-03-29T03:34:47.015Z,6.40
2018-03-29T03:35:56.243Z,6.38
2018-03-29T03:37:02.458Z,6.45
2018-03-29T03:38:08.829Z,6.44
2018-03-29T03:39:15.049Z,6.41
2018-03-29T03:40:21.286Z,6.36
2018-03-29T03:41:27.473Z,6.36
2018-03-29T03:42:33.696Z,6.40
2018-03-29T03:43:39.898Z,6.37
2018-03-29T03:44:46.097Z,6.37
2018-03-29T03:45:52.553Z,6.23
2018-03-29T03:46:58.729Z,6.26
2018-03-29T03:48:04.944Z,6.17
2018-03-29T03:49:11.304Z,6.07
2018-03-29T03:50:20.937Z,5.99
2018-03-29T03:51:27.177Z,5.96
2018-03-29T03:52:33.401Z,5.96
2018-03-29T03:53:39.666Z,5.95
2018-03-29T03:54:50.866Z,6.02
2018-03-29T03:55:57.128Z,6.06
2018-03-29T03:57:03.317Z,6.01
2018-03-29T03:58:09.861Z,6.02
2018-03-29T03:59:16.310Z,5.97
2018-03-29T04:00:24.673Z,5.92
2018-03-29T04:01:30.817Z,5.94
2018-03-29T04:02:37.003Z,6.02
2018-03-29T04:03:44.269Z,6.00
2018-03-29T04:04:51.042Z,5.99
2018-03-29T04:05:57.244Z,5.97
2018-03-29T04:07:08.520Z,5.91
2018-03-29T04:08:14.736Z,5.95
2018-03-29T04:09:20.927Z,5.96
2018-03-29T04:10:27.436Z,5.89
2018-03-29T04:11:33.932Z,5.88
2018-03-29T04:12:40.489Z,5.90
2018-03-29T04:13:50.613Z,5.73
2018-03-29T04:15:04.737Z,5.75
2018-03-29T04:16:10.932Z,5.76
2018-03-29T04:17:17.416Z,5.77
2018-03-29T04:18:23.988Z,5.77
2018-03-29T04:19:30.173Z,5.76
2018-03-29T04:20:36.518Z,5.64
2018-03-29T04:21:42.725Z,5.65
2018-03-29T04:22:48.917Z,5.56
2018-03-29T04:23:55.162Z,5.58
2018-03-29T04:25:01.377Z,5.59
2018-03-29T04:26:07.738Z,5.57
2018-03-29T04:27:14.192Z,5.61
2018-03-29T04:28:20.018Z,5.62
2018-03-29T04:29:26.325Z,5.54
2018-03-29T04:30:36.960Z,5.50
2018-03-29T04:31:42.952Z,5.46
2018-03-29T04:32:49.188Z,5.45
2018-03-29T04:33:56.828Z,5.57
2018-03-29T04:35:03.277Z,5.59
2018-03-29T04:36:09.638Z,5.58
2018-03-29T04:37:23.607Z,5.52
2018-03-29T04:38:35.380Z,5.47
2018-03-29T04:39:41.619Z,5.55
2018-03-29T04:40:47.869Z,5.57
2018-03-29T04:41:58.007Z,5.59
2018-03-29T04:43:04.217Z,5.57
2018-03-29T04:44:14.352Z,5.61
2018-03-29T04:45:22.960Z,5.67
2018-03-29T04:46:29.215Z,5.65
2018-03-29T04:47:35.441Z,5.65
2018-03-29T04:48:41.653Z,5.61
2018-03-29T04:49:53.406Z,5.61
2018-03-29T04:51:00.413Z,5.55
2018-03-29T04:52:06.653Z,5.59
2018-03-29T04:53:12.882Z,5.57
2018-03-29T04:54:19.066Z,5.60
2018-03-29T04:55:25.340Z,5.57
2018-03-29T04:56:31.551Z,5.59
2018-03-29T04:57:37.797Z,5.50
2018-03-29T04:58:44.066Z,5.43
2018-03-29T04:59:52.400Z,5.47
2018-03-29T05:00:58.657Z,5.47
2018-03-29T05:02:14.706Z,5.38
2018-03-29T05:03:20.990Z,5.41
2018-03-29T05:04:27.226Z,5.36
2018-03-29T05:05:33.509Z,5.35
2018-03-29T05:06:40.011Z,5.38
2018-03-29T05:07:46.271Z,5.38
2018-03-29T05:08:57.164Z,5.30
2018-03-29T05:10:03.487Z,5.29
2018-03-29T05:11:12.634Z,5.28
2018-03-29T05:12:18.842Z,5.23
2018-03-29T05:13:26.377Z,5.32
2018-03-29T05:14:32.797Z,5.38
2018-03-29T05:15:39.035Z,5.35
2018-03-29T05:16:45.241Z,5.32
2018-03-29T05:17:51.495Z,5.40
2018-03-29T05:18:57.741Z,5.29
2018-03-29T05:20:03.661Z,5.31
2018-03-29T05:21:10.036Z,5.30
2018-03-29T05:22:16.299Z,5.34
2018-03-29T05:23:29.513Z,5.37
2018-03-29T05:24:39.594Z,5.38
2018-03-29T05:25:46.651Z,5.32
2018-03-29T05:26:53.780Z,5.29
2018-03-29T05:27:59.849Z,5.37
2018-03-29T05:29:06.169Z,5.38
2018-03-29T05:30:12.455Z,5.35
2018-03-29T05:31:18.697Z,5.48
2018-03-29T05:32:24.913Z,5.45
2018-03-29T05:33:31.545Z,5.46
2018-03-29T05:34:38.152Z,5.49
2018-03-29T05:35:45.450Z,5.61
2018-03-29T05:36:51.676Z,5.62
2018-03-29T05:37:57.935Z,5.61
2018-03-29T05:39:09.928Z,5.38
2018-03-29T05:40:20.078Z,5.45
2018-03-29T05:41:26.535Z,5.56
2018-03-29T05:42:32.549Z,5.64
2018-03-29T05:43:38.829Z,5.66
2018-03-29T05:44:45.095Z,5.50
2018-03-29T05:45:51.398Z,5.56
2018-03-29T05:46:57.929Z,5.51
2018-03-29T05:48:04.453Z,5.56
2018-03-29T05:49:10.709Z,5.66
2018-03-29T05:50:19.172Z,5.70
2018-03-29T05:51:25.466Z,5.61
2018-03-29T05:52:33.679Z,5.56
2018-03-29T05:53:39.951Z,5.57
2018-03-29T05:54:47.439Z,5.66
2018-03-29T05:55:54.106Z,5.59
2018-03-29T05:57:00.366Z,5.66
2018-03-29T05:58:06.702Z,5.57
2018-03-29T05:59:12.958Z,5.67
2018-03-29T06:00:19.484Z,5.66
2018-03-29T06:01:30.250Z,5.63
2018-03-29T06:02:37.515Z,5.71
2018-03-29T06:03:43.882Z,5.66
2018-03-29T06:04:55.175Z,5.67
2018-03-29T06:06:07.129Z,5.68
2018-03-29T06:07:14.668Z,5.78
2018-03-29T06:08:21.954Z,5.78
2018-03-29T06:09:29.573Z,5.78
2018-03-29T06:10:37.192Z,5.72
2018-03-29T06:11:43.597Z,5.55
2018-03-29T06:12:49.890Z,5.60
2018-03-29T06:14:01.491Z,5.75
2018-03-29T06:15:12.814Z,5.66
2018-03-29T06:16:21.105Z,5.73
2018-03-29T06:17:27.359Z,5.66
2018-03-29T06:18:33.576Z,5.70
2018-03-29T06:19:39.813Z,5.71
2018-03-29T06:20:46.063Z,5.77
2018-03-29T06:21:52.320Z,5.69
2018-03-29T06:22:58.922Z,5.75
2018-03-29T06:24:04.803Z,5.77
2018-03-29T06:25:10.927Z,5.82
2018-03-29T06:26:17.199Z,5.83
2018-03-29T06:27:23.481Z,5.89
2018-03-29T06:28:29.734Z,5.91
2018-03-29T06:29:35.990Z,5.82
2018-03-29T06:30:42.260Z,5.87
2018-03-29T06:31:55.745Z,5.80
2018-03-29T06:33:02.008Z,5.85
2018-03-29T06:34:13.132Z,5.77
2018-03-29T06:35:19.373Z,5.74
2018-03-29T06:36:25.343Z,5.83
2018-03-29T06:37:31.638Z,5.90
2018-03-29T06:38:37.925Z,5.83
2018-03-29T06:39:44.385Z,5.84
2018-03-29T06:40:50.632Z,5.88
2018-03-29T06:41:57.522Z,5.94
2018-03-29T06:43:07.351Z,5.95
2018-03-29T06:44:13.618Z,5.91
2018-03-29T06:45:19.892Z,6.00
2018-03-29T06:46:31.151Z,6.11
2018-03-29T06:47:40.184Z,6.06
2018-03-29T06:48:52.629Z,6.01
2018-03-29T06:50:01.929Z,6.05
2018-03-29T06:51:08.600Z,6.11
2018-03-29T06:52:14.972Z,6.09
2018-03-29T06:53:21.523Z,6.21
2018-03-29T06:54:30.133Z,6.16
2018-03-29T06:55:36.501Z,6.18
2018-03-29T06:56:42.866Z,6.17
2018-03-29T06:57:49.569Z,6.26
2018-03-29T06:59:00.911Z,6.15
2018-03-29T07:00:06.488Z,6.27
2018-03-29T07:01:12.486Z,6.38
2018-03-29T07:02:18.806Z,6.29
2018-03-29T07:03:25.084Z,6.40
2018-03-29T07:04:31.635Z,6.34
2018-03-29T07:05:38.169Z,6.32
2018-03-29T07:06:44.500Z,6.33
2018-03-29T07:07:50.754Z,6.47
2018-03-29T07:08:56.821Z,6.41
2018-03-29T07:10:03.212Z,6.40
2018-03-29T07:11:09.481Z,6.47
2018-03-29T07:12:16.049Z,6.44
2018-03-29T07:13:22.488Z,6.51
2018-03-29T07:14:29.210Z,6.48
2018-03-29T07:15:36.058Z,6.48
2018-03-29T07:16:43.338Z,6.61
2018-03-29T07:17:50.761Z,6.77
2018-03-29T07:18:57.263Z,7.07
2018-03-29T07:20:03.662Z,7.26
2018-03-29T07:21:11.240Z,7.45
2018-03-29T07:22:22.858Z,7.60
2018-03-29T07:23:29.265Z,7.65
2018-03-29T07:24:36.001Z,7.44
2018-03-29T07:25:43.137Z,7.42
2018-03-29T07:26:53.417Z,7.37
2018-03-29T07:28:00.304Z,7.37
2018-03-29T07:29:06.627Z,7.35
2018-03-29T07:30:13.688Z,7.30
2018-03-29T07:31:20.746Z,7.31
2018-03-29T07:32:28.154Z,7.24
2018-03-29T07:33:34.543Z,7.05
2018-03-29T07:34:44.910Z,7.06
2018-03-29T07:35:51.287Z,7.27
2018-03-29T07:36:57.651Z,7.24
2018-03-29T07:38:03.654Z,7.23
2018-03-29T07:39:10.890Z,7.14
2018-03-29T07:40:16.651Z,7.24
2018-03-29T07:41:23.053Z,7.26
2018-03-29T07:42:29.781Z,7.20
2018-03-29T07:43:37.494Z,7.15
2018-03-29T07:44:43.784Z,7.28
2018-03-29T07:45:50.106Z,7.43
2018-03-29T07:46:57.090Z,7.74
2018-03-29T07:48:03.464Z,7.90
2018-03-29T07:49:15.830Z,7.85
2018-03-29T07:50:25.000Z,7.93
2018-03-29T07:51:32.324Z,7.85
2018-03-29T07:52:43.549Z,7.71
2018-03-29T07:53:51.194Z,7.66
2018-03-29T07:54:57.629Z,7.68
2018-03-29T07:56:07.813Z,7.68
2018-03-29T07:57:14.786Z,7.95
2018-03-29T07:58:25.949Z,8.33
2018-03-29T07:59:32.316Z,8.58
2018-03-29T08:00:38.738Z,8.71
2018-03-29T08:01:44.933Z,8.81
2018-03-29T08:02:51.307Z,8.74
2018-03-29T08:04:02.876Z,8.75
2018-03-29T08:05:09.248Z,8.54
2018-03-29T08:06:15.757Z,8.46
2018-03-29T08:07:22.322Z,8.34
2018-03-29T08:08:28.724Z,8.18
2018-03-29T08:09:35.080Z,8.12
2018-03-29T08:10:41.637Z,8.07
2018-03-29T08:11:48.019Z,8.05
2018-03-29T08:12:54.394Z,7.97
2018-03-29T08:14:00.895Z,8.16
2018-03-29T08:15:06.894Z,8.25
2018-03-29T08:16:13.218Z,8.35
2018-03-29T08:17:19.566Z,8.51
2018-03-29T08:18:25.932Z,8.53
2018-03-29T08:19:32.247Z,8.40
2018-03-29T08:20:38.621Z,8.52
2018-03-29T08:21:44.955Z,8.59
2018-03-29T08:22:51.580Z,8.75
2018-03-29T08:24:04.725Z,8.75
2018-03-29T08:25:11.006Z,8.84
2018-03-29T08:26:17.476Z,8.95
2018-03-29T08:27:23.851Z,8.97
2018-03-29T08:28:30.222Z,9.13
2018-03-29T08:29:37.752Z,9.13
2018-03-29T08:30:44.095Z,9.17
2018-03-29T08:31:53.997Z,9.33
2018-03-29T08:33:05.258Z,8.99
2018-03-29T08:34:11.830Z,9.02
2018-03-29T08:35:18.154Z,9.13
2018-03-29T08:36:25.058Z,9.12
2018-03-29T08:37:31.748Z,9.27
2018-03-29T08:38:38.388Z,9.40
2018-03-29T08:39:45.759Z,9.33
2018-03-29T08:40:52.177Z,9.28
2018-03-29T08:41:58.593Z,9.13
2018-03-29T08:43:05.077Z,9.19
2018-03-29T08:44:11.397Z,9.10
2018-03-29T08:45:26.911Z,8.99
2018-03-29T08:46:33.312Z,8.77
2018-03-29T08:47:39.592Z,8.61
2018-03-29T08:48:45.777Z,8.63
2018-03-29T08:49:55.200Z,8.61
2018-03-29T08:51:01.574Z,8.59
2018-03-29T08:52:07.924Z,8.36
2018-03-29T08:53:19.824Z,8.33
2018-03-29T08:54:32.444Z,8.45
2018-03-29T08:55:39.286Z,8.43
2018-03-29T08:56:46.245Z,8.42
2018-03-29T08:57:54.323Z,8.29
2018-03-29T08:59:00.870Z,8.21
2018-03-29T09:00:07.540Z,8.21
2018-03-29T09:01:14.016Z,8.13
2018-03-29T09:02:20.385Z,8.06
2018-03-29T09:03:29.349Z,8.14
2018-03-29T09:04:42.399Z,8.03
2018-03-29T09:05:49.853Z,8.12
2018-03-29T09:07:00.739Z,8.11
2018-03-29T09:08:06.686Z,8.05
2018-03-29T09:09:13.031Z,8.15
2018-03-29T09:10:19.375Z,8.23
2018-03-29T09:11:25.761Z,8.25
2018-03-29T09:12:32.083Z,8.26
2018-03-29T09:13:38.707Z,8.25
2018-03-29T09:14:49.013Z,8.18
2018-03-29T09:16:00.800Z,8.29
2018-03-29T09:17:07.275Z,8.32
2018-03-29T09:18:13.704Z,8.25
2018-03-29T09:19:23.898Z,8.35
2018-03-29T09:20:31.199Z,8.31
2018-03-29T09:21:42.657Z,8.29
2018-03-29T09:22:49.542Z,8.24
2018-03-29T09:23:56.633Z,8.30
2018-03-29T09:25:03.057Z,8.27
2018-03-29T09:26:09.705Z,8.33
2018-03-29T09:27:20.962Z,8.24
2018-03-29T09:28:27.436Z,8.14
2018-03-29T09:29:34.139Z,8.30
2018-03-29T09:30:40.740Z,8.39
2018-03-29T09:31:49.953Z,8.42
2018-03-29T09:32:56.279Z,8.63
2018-03-29T09:34:03.403Z,8.70
2018-03-29T09:35:10.792Z,8.79
2018-03-29T09:36:17.145Z,8.72
2018-03-29T09:37:23.905Z,8.63
2018-03-29T09:38:30.335Z,8.68
2018-03-29T09:39:42.808Z,8.84
2018-03-29T09:40:50.610Z,8.96
2018-03-29T09:41:57.012Z,8.87
2018-03-29T09:43:03.490Z,8.98
2018-03-29T09:44:10.737Z,9.04
2018-03-29T09:45:18.309Z,9.23
2018-03-29T09:46:28.683Z,9.45
2018-03-29T09:47:44.051Z,9.71
2018-03-29T09:48:51.422Z,9.88
2018-03-29T09:49:58.753Z,9.90
2018-03-29T09:51:05.387Z,10.07
2018-03-29T09:52:11.809Z,10.15
2018-03-29T09:53:18.216Z,10.06
2018-03-29T09:54:25.491Z,9.82
2018-03-29T09:55:32.236Z,9.93
2018-03-29T09:56:39.511Z,9.92
2018-03-29T09:57:46.229Z,10.11
2018-03-29T09:58:53.216Z,10.13
2018-03-29T09:59:59.700Z,10.21
2018-03-29T10:01:07.739Z,10.38
2018-03-29T10:02:19.470Z,10.62
2018-03-29T10:03:29.415Z,10.73
2018-03-29T10:04:36.495Z,10.62
2018-03-29T10:05:42.557Z,10.58
2018-03-29T10:06:49.044Z,10.50
2018-03-29T10:07:55.913Z,10.29
2018-03-29T10:09:02.625Z,9.84
2018-03-29T10:10:09.669Z,9.77
2018-03-29T10:11:16.275Z,9.92
2018-03-29T10:12:24.475Z,9.77
2018-03-29T10:13:30.937Z,9.69
2018-03-29T10:14:38.275Z,9.65
2018-03-29T10:15:44.623Z,9.69
2018-03-29T10:16:51.935Z,9.76
2018-03-29T10:17:59.809Z,9.69
2018-03-29T10:19:06.403Z,9.49
2018-03-29T10:20:14.180Z,9.43
2018-03-29T10:21:23.886Z,9.26
2018-03-29T10:22:30.220Z,9.28
2018-03-29T10:23:36.634Z,9.34
2018-03-29T10:24:42.968Z,9.52
2018-03-29T10:25:49.279Z,9.55
2018-03-29T10:26:55.629Z,9.52
2018-03-29T10:28:01.924Z,9.50
2018-03-29T10:29:09.138Z,9.47
2018-03-29T10:30:16.642Z,9.46
2018-03-29T10:31:23.874Z,9.54
2018-03-29T10:32:34.304Z,9.61
2018-03-29T10:33:41.728Z,9.51
2018-03-29T10:34:48.081Z,9.68
2018-03-29T10:35:54.417Z,9.78
2018-03-29T10:37:01.992Z,9.81
2018-03-29T10:38:11.882Z,9.90
2018-03-29T10:39:28.576Z,9.87
2018-03-29T10:40:36.710Z,9.76
2018-03-29T10:41:43.437Z,9.80
2018-03-29T10:42:50.436Z,9.70
2018-03-29T10:43:59.044Z,9.67
2018-03-29T10:45:06.962Z,9.82
2018-03-29T10:46:13.951Z,9.75
2018-03-29T10:47:21.865Z,9.80
2018-03-29T10:48:29.714Z,9.84
2018-03-29T10:49:36.720Z,9.86
2018-03-29T10:50:45.098Z,9.83
2018-03-29T10:51:52.728Z,9.84
2018-03-29T10:52:59.445Z,9.63
2018-03-29T10:54:05.748Z,9.68
2018-03-29T10:55:13.244Z,9.85
2018-03-29T10:56:19.641Z,9.88
2018-03-29T10:57:26.466Z,9.80
2018-03-29T10:58:38.933Z,9.82
2018-03-29T10:59:50.018Z,9.79
2018-03-29T11:01:04.932Z,9.58
2018-03-29T11:02:10.896Z,9.57
2018-03-29T11:03:17.385Z,9.72
2018-03-29T11:04:23.859Z,9.71
2018-03-29T11:05:30.167Z,9.78
2018-03-29T11:06:36.391Z,9.73
2018-03-29T11:07:42.636Z,9.70
2018-03-29T11:08:48.922Z,9.69
2018-03-29T11:09:55.231Z,9.80
2018-03-29T11:11:06.960Z,9.76
2018-03-29T11:12:13.279Z,9.87
2018-03-29T11:13:22.513Z,9.96
2018-03-29T11:14:28.877Z,10.02
2018-03-29T11:15:35.162Z,9.84
2018-03-29T11:16:42.630Z,9.61
2018-03-29T11:17:49.323Z,9.66
2018-03-29T11:18:55.615Z,9.59
2018-03-29T11:20:01.985Z,9.49
2018-03-29T11:21:08.312Z,9.56
2018-03-29T11:22:23.951Z,9.44
2018-03-29T11:23:31.612Z,9.51
2018-03-29T11:24:38.001Z,9.43
2018-03-29T11:25:44.479Z,9.38
2018-03-29T11:26:50.796Z,9.39
2018-03-29T11:27:57.133Z,9.46
2018-03-29T11:29:03.403Z,9.52
2018-03-29T11:30:09.718Z,9.48
2018-03-29T11:31:16.018Z,9.40
2018-03-29T11:32:22.320Z,9.57
2018-03-29T11:33:28.717Z,9.48
2018-03-29T11:34:40.487Z,9.63
2018-03-29T11:35:47.517Z,9.45
2018-03-29T11:36:53.794Z,9.36
2018-03-29T11:38:04.713Z,9.26
2018-03-29T11:39:11.327Z,9.23
2018-03-29T11:40:25.780Z,9.29
2018-03-29T11:41:34.292Z,9.27
2018-03-29T11:42:40.646Z,9.37
2018-03-29T11:43:47.894Z,9.32
2018-03-29T11:44:55.086Z,9.28
2018-03-29T11:46:03.274Z,9.27
2018-03-29T11:47:09.645Z,9.20
2018-03-29T11:48:15.939Z,9.21
2018-03-29T11:49:22.507Z,9.15
2018-03-29T11:50:30.802Z,9.30
2018-03-29T11:51:37.129Z,9.37
2018-03-29T11:52:44.275Z,9.53
2018-03-29T11:53:50.504Z,9.66
2018-03-29T11:54:56.857Z,9.68
2018-03-29T11:56:04.245Z,9.44
2018-03-29T11:57:10.603Z,9.47
2018-03-29T11:58:22.040Z,9.31
2018-03-29T11:59:28.101Z,9.31
2018-03-29T12:00:34.372Z,9.47
2018-03-29T12:01:40.365Z,9.48
2018-03-29T12:02:46.611Z,9.59
2018-03-29T12:03:54.150Z,9.50
2018-03-29T12:05:09.647Z,9.48
2018-03-29T12:06:17.067Z,9.32
2018-03-29T12:07:28.403Z,9.38
2018-03-29T12:08:34.723Z,9.36
2018-03-29T12:09:41.047Z,9.48
2018-03-29T12:10:47.293Z,9.48
2018-03-29T12:11:53.553Z,9.48
2018-03-29T12:12:59.836Z,9.52
2018-03-29T12:14:06.727Z,9.49
2018-03-29T12:15:14.932Z,9.52
2018-03-29T12:16:26.319Z,9.56
2018-03-29T12:17:32.583Z,9.49
2018-03-29T12:18:38.833Z,9.47
2018-03-29T12:19:47.640Z,9.42
2018-03-29T12:20:55.894Z,9.46
2018-03-29T12:22:02.225Z,9.46
2018-03-29T12:23:12.069Z,9.46
2018-03-29T12:24:18.406Z,9.40
2018-03-29T12:25:24.875Z,9.41
2018-03-29T12:26:31.197Z,9.47
2018-03-29T12:27:42.604Z,9.60
2018-03-29T12:28:49.921Z,9.64
2018-03-29T12:29:56.219Z,9.74
2018-03-29T12:31:02.471Z,9.82
2018-03-29T12:32:10.905Z,9.79
2018-03-29T12:33:17.169Z,9.75
2018-03-29T12:34:23.445Z,9.79
2018-03-29T12:35:35.391Z,9.86
2018-03-29T12:36:41.708Z,9.81
2018-03-29T12:37:47.995Z,9.84
2018-03-29T12:38:54.426Z,9.89
2018-03-29T12:40:04.073Z,9.98
2018-03-29T12:41:10.373Z,9.87
2018-03-29T12:42:16.640Z,9.99
2018-03-29T12:43:22.922Z,9.93
2018-03-29T12:44:29.218Z,9.84
2018-03-29T12:45:36.768Z,9.99
2018-03-29T12:46:44.823Z,9.93
2018-03-29T12:47:57.343Z,9.89
2018-03-29T12:49:04.099Z,9.82
2018-03-29T12:50:10.436Z,9.83
2018-03-29T12:51:18.585Z,9.76
2018-03-29T12:52:24.861Z,9.67
2018-03-29T12:53:31.287Z,9.66
2018-03-29T12:54:48.742Z,9.69
2018-03-29T12:55:54.950Z,9.81
2018-03-29T12:57:12.164Z,9.80
2018-03-29T12:58:19.072Z,9.70
2018-03-29T12:59:25.741Z,9.55
2018-03-29T13:00:32.247Z,9.70
2018-03-29T13:01:38.548Z,9.60
2018-03-29T13:02:48.612Z,9.57
2018-03-29T13:03:54.860Z,9.57
2018-03-29T13:05:02.526Z,9.54
2018-03-29T13:06:08.752Z,9.52
2018-03-29T13:07:15.951Z,9.65
2018-03-29T13:08:22.166Z,9.61
2018-03-29T13:09:28.474Z,9.64
2018-03-29T13:10:35.695Z,9.66
2018-03-29T13:11:45.404Z,9.73
2018-03-29T13:12:51.619Z,9.75
2018-03-29T13:13:57.943Z,9.98
2018-03-29T13:15:08.159Z,10.08
2018-03-29T13:16:16.974Z,9.96
2018-03-29T13:17:29.049Z,10.14
2018-03-29T13:18:38.240Z,10.23
2018-03-29T13:19:44.271Z,10.29
2018-03-29T13:20:50.577Z,10.42
2018-03-29T13:21:57.246Z,10.29
2018-03-29T13:23:05.756Z,10.24
2018-03-29T13:24:11.772Z,10.20
2018-03-29T13:25:18.760Z,10.21
2018-03-29T13:26:25.016Z,10.24
2018-03-29T13:27:32.921Z,10.32
2018-03-29T13:28:38.944Z,10.44
2018-03-29T13:29:45.209Z,10.51
2018-03-29T13:30:51.269Z,10.53
2018-03-29T13:31:58.707Z,10.46
2018-03-29T13:33:06.479Z,10.32
2018-03-29T13:34:12.834Z,10.27
2018-03-29T13:35:23.075Z,10.32
2018-03-29T13:36:29.711Z,10.33
2018-03-29T13:37:36.212Z,10.47
2018-03-29T13:38:42.585Z,10.57
2018-03-29T13:39:48.855Z,10.58
2018-03-29T13:40:55.136Z,10.54
2018-03-29T13:42:09.352Z,10.61
2018-03-29T13:43:15.637Z,10.58
2018-03-29T13:44:24.155Z,10.54
2018-03-29T13:45:30.166Z,10.51
2018-03-29T13:46:39.029Z,10.57
2018-03-29T13:47:45.340Z,10.50
2018-03-29T13:48:51.441Z,10.55
2018-03-29T13:49:57.732Z,10.67
2018-03-29T13:51:04.028Z,10.78
2018-03-29T13:52:15.355Z,10.88
2018-03-29T13:53:25.492Z,10.78
2018-03-29T13:54:31.587Z,10.76
2018-03-29T13:55:37.906Z,10.83
2018-03-29T13:56:49.100Z,10.74
2018-03-29T13:57:59.396Z,10.55
2018-03-29T13:59:05.966Z,10.58
2018-03-29T14:00:16.403Z,10.64
2018-03-29T14:01:22.723Z,10.52
2018-03-29T14:02:29.617Z,10.53
2018-03-29T14:03:35.963Z,10.58
2018-03-29T14:04:51.217Z,10.58
2018-03-29T14:05:58.889Z,10.39
2018-03-29T14:07:05.248Z,10.38
2018-03-29T14:08:11.254Z,10.33
2018-03-29T14:09:17.248Z,10.30
2018-03-29T14:10:25.563Z,10.24
2018-03-29T14:11:32.481Z,10.17
2018-03-29T14:12:40.981Z,10.21
2018-03-29T14:13:47.236Z,10.16
2018-03-29T14:14:53.835Z,10.18
2018-03-29T14:16:00.130Z,10.11
2018-03-29T14:17:12.528Z,9.94
2018-03-29T14:18:18.849Z,9.86
2018-03-29T14:19:25.162Z,9.89
2018-03-29T14:20:31.478Z,9.74
2018-03-29T14:21:37.855Z,9.51
2018-03-29T14:22:44.189Z,9.54
2018-03-29T14:23:56.978Z,9.70
2018-03-29T14:25:03.464Z,9.79
2018-03-29T14:26:13.581Z,9.91
2018-03-29T14:27:19.476Z,9.98
2018-03-29T14:28:27.319Z,10.08
2018-03-29T14:29:33.955Z,10.09
2018-03-29T14:30:39.977Z,10.18
2018-03-29T14:31:46.273Z,10.17
2018-03-29T14:32:52.443Z,10.11
2018-03-29T14:33:59.949Z,10.09
2018-03-29T14:35:06.320Z,10.05
2018-03-29T14:36:12.691Z,10.16
2018-03-29T14:37:19.048Z,10.19
2018-03-29T14:38:28.486Z,9.98
2018-03-29T14:39:37.243Z,10.12
2018-03-29T14:40:43.545Z,10.07
2018-03-29T14:41:53.591Z,10.10
2018-03-29T14:43:00.033Z,9.96
2018-03-29T14:44:11.889Z,9.95
2018-03-29T14:45:17.890Z,10.14
2018-03-29T14:46:29.180Z,10.15
2018-03-29T14:47:35.101Z,10.10
2018-03-29T14:48:42.671Z,10.08
2018-03-29T14:49:48.965Z,10.04
2018-03-29T14:51:01.759Z,10.04
2018-03-29T14:52:09.191Z,10.06
2018-03-29T14:53:24.020Z,10.15
2018-03-29T14:54:30.979Z,10.04